Highlands Peak, California Weather observations

Data are for observation ending at time listed.
 Day   Time    Ave.   Ave.  Ave.  Vector   Max.   Stn.    Total    Solar   Ave.  
  of    of     Air    Rel.  Wind   Wind    Wind   Baro.  Precip.   Rad.    Soil  
Year   Day     Temp.  Hum.  Speed  Dir.    Gust   Pres.                    Temp. 
2014   (PST)    F      %     mph   deg.    mph     mb.     in.     W/m2     F   
------------------------------------------------------------------------------
 232    6:50   51.3    96    2.1   242      3.3   927.2    0.00     166    70.5
 232    7:00   51.4    97    1.1   276      3.0   927.4    0.00     123    70.4
 232    7:10   51.3    97    0.5   341      2.0   927.5    0.00     142    70.4
 232    7:20   52.1    97    1.4   341      3.3   927.4    0.00     235    70.3
 232    7:30   52.1    97    3.1   290      4.6   927.5    0.00     265    70.2
 232    7:40   52.1    97    1.3   282      3.0   927.6    0.00     200    70.2
 232    7:50   52.6    97    1.2   354      3.4   927.7    0.00     262    70.2
 232    8:00   53.6    97    0.6   313      2.5   927.8    0.00     367    70.2
 232    8:10   53.7    97    1.4   279      2.7   928.0    0.00     347    70.2
 232    8:20   53.7    97    1.3   246      2.6   928.1    0.00     346    70.3
 232    8:30   53.7    97    1.4   233      2.8   928.2    0.00     339    70.4
 232    8:40   54.3    97    2.4   290      4.2   928.2    0.00     379    70.4
 232    8:50   53.9    97    2.7   292      4.0   928.3    0.00     356    70.3
 232    9:00   54.3    97    3.7   284      5.9   928.4    0.00     382    70.4
 232    9:10   54.0    97    4.8   287      7.1   928.4    0.00     378    70.5
 232    9:20   54.0    96    4.4   283      6.1   928.4    0.00     403    70.6
 232    9:30   53.9    96    3.0   265      4.8   928.5    0.00     401    70.7
 232    9:40   54.2    96    2.2   279      4.2   928.6    0.00     378    70.9
 232    9:50   54.4    96    3.2   284      5.6   928.7    0.00     399    70.9
 232   10:00   54.4    95    2.9   277      4.7   928.7    0.00     448    71.1
 232   10:10   54.7    95    3.5   270      6.1   928.8    0.00     453    71.2
 232   10:20   54.9    94    3.2   275      5.3   928.9    0.00     415    71.3
 232   10:30   55.4    93    2.4   274      4.3   928.8    0.00     493    71.5
 232   10:40   55.7    91    3.3   275      5.8   928.8    0.00     495    71.7
 232   10:50   56.7    90    2.6   280      4.8   928.9    0.00     522    71.9
 232   11:00   56.7    89    3.4   280      5.9   929.0    0.00     532    72.0
 232   11:10   57.1    88    4.1   269      6.1   929.0    0.00     535    72.1
 232   11:20   56.9    88    3.8   269      7.4   929.2    0.00     492    72.2
 232   11:30   56.8    88    3.6   299      5.4   929.2    0.00     523    72.4
 232   11:40   57.3    86    4.4   267      7.8   929.1    0.00     697    72.6
 232   11:50   58.6    82    3.7   290      7.7   929.1    0.00     853    72.7
 232   12:00   58.6    82    3.2   288      7.3   929.0    0.00     997    72.8
 232   12:10   60.3    79    3.2   278      5.6   929.0    0.00     980    73.0
 232   12:20   61.6    75    3.6   276      6.5   928.9    0.00     974    73.2
 232   12:30   62.7    73    3.1   252      6.2   928.9    0.00     971    73.4
 232   12:40   62.6    73    4.5   275      7.2   928.9    0.00     966    73.7
 232   12:50   61.3    75    3.8   280      8.5   929.0    0.00     961    74.0
 232   13:00   61.8    74    3.9   277      7.1   929.0    0.00     951    74.2
 232   13:10   62.1    73    3.6   279      6.6   928.9    0.00     940    74.6
 232   13:20   62.3    73    4.0   276      7.2   928.8    0.00     927    74.9
 232   13:30   63.3    71    3.2   281      5.7   928.8    0.00     913    75.2
 232   13:40   63.0    71    3.1   297      5.6   928.8    0.00     898    75.6
 232   13:50   63.4    70    3.8   283      6.7   928.7    0.00     881    76.0
 232   14:00   64.8    67    3.8   286      5.9   928.6    0.00     853    76.3
 232   14:10   64.6    67    4.6   280      8.0   928.4    0.00     830    76.7
 232   14:20   65.6    65    3.3   254      6.3   928.3    0.00     822    77.1
 232   14:30   66.5    62    3.7   233      8.1   928.3    0.00     800    77.5
 232   14:40   66.4    63    4.0   247      7.3   928.3    0.00     776    77.9
 232   14:50   66.8    62    4.0   262      6.8   928.2    0.00     751    78.3
 232   15:00   66.6    62    3.8   269      7.0   928.2    0.00     724    78.6
 232   15:10   66.8    61    4.6   265      8.3   928.1    0.00     699    79.0
 232   15:20   66.6    62    5.0   261      7.6   928.2    0.00     671    79.3
 232   15:30   66.5    61    4.2   263      8.0   928.2    0.00     640    79.6
 232   15:40   65.5    63    4.8   264      8.8   928.2    0.00     609    80.0
 232   15:50   65.4    63    4.3   276      8.2   928.2    0.00     577    80.2
 232   16:00   64.6    65    4.1   281      6.9   928.2    0.00     543    80.5
 232   16:10   65.0    65    4.2   281      7.0   928.2    0.00     509    80.7
 232   16:20   65.7    63    2.4   281      5.4   928.2    0.00     475    80.8
 232   16:30   67.2    60    1.8   284      3.8   928.1    0.00     439    81.0
 232   16:40   67.0    61    2.9   267      5.7   928.0    0.00     403    81.3
 232   16:50   67.0    60    2.1   284      3.9   927.9    0.00     368    81.4
 232   17:00   67.2    60    2.3   286      4.2   927.8    0.00     333    81.6
 232   17:10   66.2    62    3.0   278      5.6   927.8    0.00     298    81.8
 232   17:20   65.3    64    3.6   282      6.5   927.9    0.00     262    81.9
 232   17:30   65.2    64    2.3   286      4.7   927.8    0.00     227    82.0
 232   17:40   65.4    63    2.2   296      3.9   927.8    0.00     194    82.1
 232   17:50   65.4    63    1.1   268      4.0   927.7    0.00     161    82.1
 232   18:00   67.0    60    1.0   260      3.0   927.6    0.00     130    82.2
 232   18:10   66.4    61    1.6   242      3.2   927.6    0.00     102    82.3
 232   18:20   65.6    63    1.1   177      3.5   927.6    0.00      74    82.3
 232   18:30   64.0    63    1.2   190      3.8   927.7    0.00      50    82.3
 232   18:40   63.4    61    0.9   193      2.2   927.8    0.00      29    82.3
 232   18:50   62.5    63    1.7   194      3.4   927.8    0.00      14    82.3
 232   19:00   61.7    65    1.2   200      2.9   927.9    0.00       5    82.3
 232   19:10   60.7    67    4.2   145      5.4   927.8    0.00       1    81.8
 232   19:20   60.9    65    1.6   152      4.1   927.8    0.00       0    81.3
 232   19:30   61.5    64    3.2   250      7.1   927.9    0.00       0    81.6
 232   19:40   60.8    60    4.5   199      6.4   928.0    0.00       0    81.7
 232   19:50   60.7    62    1.6    98      2.9   928.0    0.00       0    81.6
 232   20:00   61.3    64    2.2   323      2.8   928.0    0.00       0    81.5
 232   20:10   61.1    62    2.0   293      3.0   928.0    0.00       0    81.4
 232   20:20   60.9    61    4.2   215      5.8   928.1    0.00       0    81.3
 232   20:30   60.4    61    3.5   227      6.4   928.2    0.00       0    81.1
 232   20:40   60.2    62    1.1    90      2.6   928.3    0.00       0    81.0
 232   20:50   60.6    62    1.4     6      2.0   928.3    0.00       0    80.8
 232   21:00   60.6    63    0.7   356      1.8   928.3    0.00       0    80.7
 232   21:10   60.6    64    1.4    15      2.8   928.4    0.00       0    80.4
 232   21:20   60.9    62    2.2    74      3.4   928.4    0.00       0    80.2
 232   21:30   61.3    62    0.7    81      2.0   928.4    0.00       0    80.1
 232   21:40   61.2    62    2.2   115      3.3   928.3    0.00       0    79.8
 232   21:50   61.7    58    1.8   122      2.4   928.2    0.00       0    79.4
 232   22:00   62.0    57    0.5   181      1.7   928.1    0.00       0    79.2
 232   22:10   62.1    56    1.5   258      2.6   928.2    0.00       0    79.2
 232   22:20   61.5    58    0.7   192      2.2   928.2    0.00       0    79.2
 232   22:30   61.2    59    2.4     4      4.1   928.1    0.00       0    79.0
 232   22:40  99999.0   99999  99999.0   99999    99999.0   99999.0   99999.00   99999    99999.0
 232   22:50   60.7    62    2.2   321      3.6   928.2    0.00       0    78.6
 232   23:00   60.7    61    0.9    37      2.7   928.2    0.00       0    78.4
 232   23:10   61.2    59    0.7    47      2.0   928.2    0.00       0    78.2
 232   23:20   61.2    60    2.8    84      3.7   928.2    0.00       0    78.0
 232   23:30   61.4    58    2.5    89      3.4   928.2    0.00       0    77.7
 232   23:40   61.8    54    3.2   105      3.8   928.2    0.00       0    77.5
 232   23:50   62.4    50    2.8   102      3.7   928.1    0.00       0    77.2
 233    0:00   63.0    47    3.6   107      4.5   928.1    0.00       0    76.8
 233    0:10   64.6    41    3.1    95      3.8   928.1    0.00       0    76.4
 233    0:20   65.9    37    2.7   103      3.7   928.0    0.00       0    76.3
 233    0:30   65.9    36    3.0    87      5.1   928.0    0.00       0    76.3
 233    0:40   65.5    36    3.0    83      4.4   928.0    0.00       0    76.2
 233    0:50   65.6    35    2.8   114      3.9   928.0    0.00       0    75.8
 233    1:00   66.9    32    3.0   130      3.5   927.9    0.00       0    74.9
 233    1:10   67.0    33    2.8   143      3.4   927.9    0.00       0    74.4
 233    1:20   67.1    33    2.6   138      2.8   927.9    0.00       0    74.2
 233    1:30   67.3    32    2.1   127      2.4   927.9    0.00       0    74.2
 233    1:40   67.4    31    2.4   159      3.5   927.9    0.00       0    74.2
 233    1:50   66.6    30    2.9   129      3.5   927.8    0.00       0    74.0
 233    2:00   66.7    29    2.4   132      3.2   927.7    0.00       0    73.9
 233    2:10   67.2    30    1.5   169      2.0   927.8    0.00       0    73.7
 233    2:20   66.5    24    1.9    78      5.0   927.8    0.00       0    74.0
 233    2:30   65.9    21    3.8    85      5.1   927.8    0.00       0    74.1
 233    2:40   66.6    24    3.8    85      4.7   927.8    0.00       0    73.9
 233    2:50   67.6    21    2.9    75      4.7   927.7    0.00       0    74.0
 233    3:00   67.8    19    2.4    70      4.6   927.7    0.00       0    73.9
 233    3:10   67.5    22    0.6   276      1.8   927.8    0.00       0    73.9
 233    3:20   66.9    26    0.9   270      1.8   927.8    0.00       0    73.8
 233    3:30   66.5    22    1.7    66      2.6   927.8    0.00       0    73.7
 233    3:40   66.4    19    2.7    79      5.2   927.7    0.00       0    73.6
 233    3:50   66.3    21    2.1    68      4.2   927.6    0.00       0    73.4
 233    4:00   66.5    23    1.0    14      2.4   927.5    0.00       0    73.4
 233    4:10   66.1    23    0.2   103      1.1   927.5    0.00       0    73.2
 233    4:20   66.0    25    1.1   257      2.2   927.5    0.00       0    73.1
 233    4:30   65.8    30    3.4   169      5.3   927.5    0.00       0    72.8
 233    4:40   65.3    32    4.5   182      5.3   927.6    0.00       0    72.0
 233    4:50   64.7    32    3.8   205      5.0   927.6    0.00       0    72.3
 233    5:00   64.5    33    2.2   206      4.5   927.7    0.00       0    72.5
 233    5:10   64.5    32    1.6   143      2.9   927.8    0.00       0    72.2
 233    5:20   64.7    19    3.2    96      5.9   927.8    0.00       1    72.1
 233    5:30   65.3    17    5.9    73      7.8   927.9    0.00       2    72.0
 233    5:40   66.3    15    4.1    91      6.0   928.0    0.00       6    72.1
 233    5:50   66.7    15    2.6    64      5.5   928.1    0.00      12    71.9
 233    6:00   67.3    16    1.5    61      4.2   928.2    0.00      18    72.0
 233    6:10   67.5    16    0.6    78      3.0   928.2    0.00      23    71.9
 233    6:20   67.4    17    0.6     6      1.8   928.3    0.00      27    71.8
 233    6:30   66.9    19    1.3   274      3.9   928.4    0.00     153    71.8
 233    6:40   66.3    21    2.1   300      3.3   928.6    0.00     207    71.7

Return to Highlands Peak graphs page.


Western Regional Climate Center,wrcc@dri.edu